Portada
METAR-TAF:

METAR-TAF

Aeropuertos :

Aeropuerto de San Sebastián

San Sebastián, España

latitud: 43-21N, longitud: 001-48W, altitud: 5 m

Observación

El informe se hizo hace 43 minutos, a las 01:00 UTC
Viento 9 kt del sur-sureste, variando entre sureste y sur-suroeste
Temperatura 12°C
Humedad 58%
Presión 1020 hPa
Visibilidad 10 km o más
sin nubes por debajo de 1500 m y sin presencia de cumulonimbus.

METAR: LESO 240100Z AUTO 16009KT 130V200 CAVOK 12/04 Q1020

Hora: 02:43 (01:43 UTC)

Pronóstico

El informe se hizo hace 2 horas y 43 minutos, a las 23:00 UTC
Pronóstico válido del 24 a las 00 UTC al 24 a las 24 UTC
Viento 8 kt del sur
Visibilidad 10 km o más
sin nubes por debajo de 1500 m y sin presencia de cumulonimbus.

TAF: LESO 232300Z 2400/2424 18008KT CAVOK TX15/2413Z TN08/2407Z

Observaciones y pronósticos meteorológicos de más de 4000 aeropuertos (mensajes METAR y TAF).

Los puntos amarillos y rojos representan las estaciones disponibles.

Ponga el ratón en el punto deseado para ver el nombre de la estación.

Haga clic para ver las observaciones y los pronósticos meteorológicos.

Para cambiar el mapa : haga clic en los botones verdes con una cruz de color negro para hacer un zoom, en el botón verde con un guión para alejar o en las flechas verdes para mapas adyacentes.


METAR-TAF: